Arnprior, Canada
Current Conditions -  °F | °C
As of 2:00 AM on Thursday 18 Dec 2014 (Local Time) from CYOW Reporting Station
Light Snow Light Snow  
Wind Chill: 24°   Ceiling: 300
Heat Index: 32°   Visibility: 2.5mi
Dew Point: 32°   Wind: 10mph
Humidity: 100%   Direction: 280°W
Pressure: 29.8"   Gusts: NA
Location:  45.43°N, 76.37°W
Report Text: CYOW 180700Z 28009KT 2 1/2SM -SN BR OVC003 00/M00 A2980 RMK SF8 SLP097
Loading
Personal Weather Stations






























Interactive Weather Map New forecast layout! Learn more

10-Day Weather Forecast

Advertisements
Track Severe Weather on mobile